sensor_id;sensor_type;location;lat;lon;timestamp;pressure;altitude;pressure_sealevel;temperature
65272;BMP280;51868;48.812;8.198;2022-11-10T00:02:11;100804.38;;;13.05
65272;BMP280;51868;48.812;8.198;2022-11-10T00:04:39;100807.09;;;13.03
65272;BMP280;51868;48.812;8.198;2022-11-10T00:07:07;100815.34;;;13.01
65272;BMP280;51868;48.812;8.198;2022-11-10T00:09:35;100810.41;;;12.99
65272;BMP280;51868;48.812;8.198;2022-11-10T00:12:04;100818.03;;;12.99
65272;BMP280;51868;48.812;8.198;2022-11-10T00:14:32;100823.63;;;12.99
65272;BMP280;51868;48.812;8.198;2022-11-10T00:17:17;100825.56;;;12.96
65272;BMP280;51868;48.812;8.198;2022-11-10T00:19:45;100821.47;;;12.97
65272;BMP280;51868;48.812;8.198;2022-11-10T00:22:13;100832.50;;;12.95
65272;BMP280;51868;48.812;8.198;2022-11-10T00:24:40;100830.97;;;12.92
65272;BMP280;51868;48.812;8.198;2022-11-10T00:27:11;100832.22;;;12.89
65272;BMP280;51868;48.812;8.198;2022-11-10T00:29:40;100838.41;;;12.88
65272;BMP280;51868;48.812;8.198;2022-11-10T00:32:08;100838.94;;;12.84
65272;BMP280;51868;48.812;8.198;2022-11-10T00:34:36;100841.50;;;12.80
65272;BMP280;51868;48.812;8.198;2022-11-10T00:37:04;100839.47;;;12.81
65272;BMP280;51868;48.812;8.198;2022-11-10T00:39:32;100840.19;;;12.81
65272;BMP280;51868;48.812;8.198;2022-11-10T00:41:59;100847.19;;;12.82
65272;BMP280;51868;48.812;8.198;2022-11-10T00:44:28;100848.53;;;12.81
65272;BMP280;51868;48.812;8.198;2022-11-10T00:46:56;100846.47;;;12.82
65272;BMP280;51868;48.812;8.198;2022-11-10T00:49:24;100854.00;;;12.79
65272;BMP280;51868;48.812;8.198;2022-11-10T00:51:53;100859.50;;;12.77
65272;BMP280;51868;48.812;8.198;2022-11-10T00:54:21;100864.97;;;12.75
65272;BMP280;51868;48.812;8.198;2022-11-10T00:56:48;100864.97;;;12.75
65272;BMP280;51868;48.812;8.198;2022-11-10T00:59:16;100864.25;;;12.74
65272;BMP280;51868;48.812;8.198;2022-11-10T01:01:45;100875.28;;;12.72
65272;BMP280;51868;48.812;8.198;2022-11-10T01:04:13;100885.69;;;12.72
65272;BMP280;51868;48.812;8.198;2022-11-10T01:06:40;100883.53;;;12.70
65272;BMP280;51868;48.812;8.198;2022-11-10T01:09:08;100882.13;;;12.69
65272;BMP280;51868;48.812;8.198;2022-11-10T01:11:36;100890.25;;;12.65
65272;BMP280;51868;48.812;8.198;2022-11-10T01:14:03;100895.00;;;12.63
65272;BMP280;51868;48.812;8.198;2022-11-10T01:16:31;100896.22;;;12.60
65272;BMP280;51868;48.812;8.198;2022-11-10T01:19:02;100899.00;;;12.60
65272;BMP280;51868;48.812;8.198;2022-11-10T01:21:29;100902.34;;;12.56
65272;BMP280;51868;48.812;8.198;2022-11-10T01:23:57;100906.38;;;12.53
65272;BMP280;51868;48.812;8.198;2022-11-10T01:26:25;100916.66;;;12.50
65272;BMP280;51868;48.812;8.198;2022-11-10T01:28:53;100917.91;;;12.47
65272;BMP280;51868;48.812;8.198;2022-11-10T01:31:21;100920.59;;;12.45
65272;BMP280;51868;48.812;8.198;2022-11-10T01:33:49;100925.44;;;12.45
65272;BMP280;51868;48.812;8.198;2022-11-10T01:36:18;100925.97;;;12.41
65272;BMP280;51868;48.812;8.198;2022-11-10T01:38:46;100931.53;;;12.41
65272;BMP280;51868;48.812;8.198;2022-11-10T01:41:14;100941.81;;;12.39
65272;BMP280;51868;48.812;8.198;2022-11-10T01:43:42;100941.72;;;12.37
65272;BMP280;51868;48.812;8.198;2022-11-10T01:46:11;100945.88;;;12.36
65272;BMP280;51868;48.812;8.198;2022-11-10T01:48:43;100944.91;;;12.31
65272;BMP280;51868;48.812;8.198;2022-11-10T01:51:16;100951.75;;;12.28
65272;BMP280;51868;48.812;8.198;2022-11-10T01:53:49;100945.34;;;12.25
65272;BMP280;51868;48.812;8.198;2022-11-10T01:56:19;100952.84;;;12.23
65272;BMP280;51868;48.812;8.198;2022-11-10T01:58:51;100949.88;;;12.19
65272;BMP280;51868;48.812;8.198;2022-11-10T02:01:20;100951.19;;;12.18
65272;BMP280;51868;48.812;8.198;2022-11-10T02:03:50;100950.34;;;12.15
65272;BMP280;51868;48.812;8.198;2022-11-10T02:06:21;100951.00;;;12.14
65272;BMP280;51868;48.812;8.198;2022-11-10T02:08:52;100952.22;;;12.11
65272;BMP280;51868;48.812;8.198;2022-11-10T02:11:21;100957.78;;;12.11
65272;BMP280;51868;48.812;8.198;2022-11-10T02:13:50;100957.78;;;12.11
65272;BMP280;51868;48.812;8.198;2022-11-10T02:16:18;100957.66;;;12.09
65272;BMP280;51868;48.812;8.198;2022-11-10T02:18:46;100968.78;;;12.09
65272;BMP280;51868;48.812;8.198;2022-11-10T02:21:16;100965.91;;;12.07
65272;BMP280;51868;48.812;8.198;2022-11-10T02:23:47;100970.03;;;12.05
65272;BMP280;51868;48.812;8.198;2022-11-10T02:26:17;100974.06;;;12.02
65272;BMP280;51868;48.812;8.198;2022-11-10T02:28:46;100970.53;;;12.02
65272;BMP280;51868;48.812;8.198;2022-11-10T02:31:13;100978.25;;;12.03
65272;BMP280;51868;48.812;8.198;2022-11-10T02:33:41;100978.16;;;12.01
65272;BMP280;51868;48.812;8.198;2022-11-10T02:36:11;100983.72;;;12.01
65272;BMP280;51868;48.812;8.198;2022-11-10T02:38:41;100992.06;;;12.01
65272;BMP280;51868;48.812;8.198;2022-11-10T02:41:08;100985.78;;;12.01
65272;BMP280;51868;48.812;8.198;2022-11-10T02:43:37;100988.56;;;12.01
65272;BMP280;51868;48.812;8.198;2022-11-10T02:46:07;100985.06;;;12.00
65272;BMP280;51868;48.812;8.198;2022-11-10T02:48:35;100988.56;;;12.01
65272;BMP280;51868;48.812;8.198;2022-11-10T02:51:03;100984.97;;;11.98
65272;BMP280;51868;48.812;8.198;2022-11-10T02:53:30;100977.84;;;11.95
65272;BMP280;51868;48.812;8.198;2022-11-10T02:55:59;100974.72;;;11.89
65272;BMP280;51868;48.812;8.198;2022-11-10T02:58:27;100994.09;;;11.87
65272;BMP280;51868;48.812;8.198;2022-11-10T03:00:55;100993.88;;;11.83
65272;BMP280;51868;48.812;8.198;2022-11-10T03:03:22;101002.72;;;11.79
65272;BMP280;51868;48.812;8.198;2022-11-10T03:05:50;101000.44;;;11.76
65272;BMP280;51868;48.812;8.198;2022-11-10T03:08:18;101013.50;;;11.73
65272;BMP280;51868;48.812;8.198;2022-11-10T03:10:46;101010.72;;;11.73
65272;BMP280;51868;48.812;8.198;2022-11-10T03:13:15;101020.50;;;11.74
65272;BMP280;51868;48.812;8.198;2022-11-10T03:15:42;101030.19;;;11.73
65272;BMP280;51868;48.812;8.198;2022-11-10T03:18:10;101024.03;;;11.75
65272;BMP280;51868;48.812;8.198;2022-11-10T03:20:38;101022.69;;;11.76
65272;BMP280;51868;48.812;8.198;2022-11-10T03:23:06;101021.38;;;11.77
65272;BMP280;51868;48.812;8.198;2022-11-10T03:25:34;101029.72;;;11.77
65272;BMP280;51868;48.812;8.198;2022-11-10T03:28:03;101038.06;;;11.77
65272;BMP280;51868;48.812;8.198;2022-11-10T03:30:32;101042.88;;;11.76
65272;BMP280;51868;48.812;8.198;2022-11-10T03:33:00;101039.97;;;11.74
65272;BMP280;51868;48.812;8.198;2022-11-10T03:35:28;101047.59;;;11.74
65272;BMP280;51868;48.812;8.198;2022-11-10T03:37:58;101045.31;;;11.70
65272;BMP280;51868;48.812;8.198;2022-11-10T03:40:26;101048.00;;;11.68
65272;BMP280;51868;48.812;8.198;2022-11-10T03:43:07;101048.00;;;11.68
65272;BMP280;51868;48.812;8.198;2022-11-10T03:45:36;101051.50;;;11.69
65272;BMP280;51868;48.812;8.198;2022-11-10T03:48:04;101051.50;;;11.69
65272;BMP280;51868;48.812;8.198;2022-11-10T03:50:32;101050.06;;;11.68
65272;BMP280;51868;48.812;8.198;2022-11-10T03:52:59;101054.16;;;11.67
65272;BMP280;51868;48.812;8.198;2022-11-10T03:55:28;101053.56;;;11.68
65272;BMP280;51868;48.812;8.198;2022-11-10T03:58:00;101066.94;;;11.72
65272;BMP280;51868;48.812;8.198;2022-11-10T04:00:28;101063.44;;;11.71
65272;BMP280;51868;48.812;8.198;2022-11-10T04:02:57;101067.06;;;11.74
65272;BMP280;51868;48.812;8.198;2022-11-10T04:05:25;101069.38;;;11.77
65272;BMP280;51868;48.812;8.198;2022-11-10T04:08:12;101065.94;;;11.79
65272;BMP280;51868;48.812;8.198;2022-11-10T04:10:57;101079.97;;;11.81
65272;BMP280;51868;48.812;8.198;2022-11-10T04:13:25;101079.25;;;11.80
65272;BMP280;51868;48.812;8.198;2022-11-10T04:16:11;101085.41;;;11.79
65272;BMP280;51868;48.812;8.198;2022-11-10T04:18:40;101083.88;;;11.76
65272;BMP280;51868;48.812;8.198;2022-11-10T04:21:07;101095.00;;;11.76
65272;BMP280;51868;48.812;8.198;2022-11-10T04:23:35;101096.22;;;11.73
65272;BMP280;51868;48.812;8.198;2022-11-10T04:26:04;101102.38;;;11.71
65272;BMP280;51868;48.812;8.198;2022-11-10T04:28:51;101098.63;;;11.67
65272;BMP280;51868;48.812;8.198;2022-11-10T04:31:20;101098.28;;;11.61
65272;BMP280;51868;48.812;8.198;2022-11-10T04:33:52;101106.19;;;11.52
65272;BMP280;51868;48.812;8.198;2022-11-10T04:36:23;101123.25;;;11.47
65272;BMP280;51868;48.812;8.198;2022-11-10T04:38:51;101122.16;;;11.40
65272;BMP280;51868;48.812;8.198;2022-11-10T04:41:21;101127.47;;;11.36
65272;BMP280;51868;48.812;8.198;2022-11-10T04:43:49;101127.81;;;11.30
65272;BMP280;51868;48.812;8.198;2022-11-10T04:46:20;101129.56;;;11.24
65272;BMP280;51868;48.812;8.198;2022-11-10T04:48:48;101144.38;;;11.17
65272;BMP280;51868;48.812;8.198;2022-11-10T04:51:18;101135.69;;;11.10
65272;BMP280;51868;48.812;8.198;2022-11-10T04:53:46;101140.88;;;11.04
65272;BMP280;51868;48.812;8.198;2022-11-10T04:56:15;101139.19;;;10.99
65272;BMP280;51868;48.812;8.198;2022-11-10T04:58:43;101144.63;;;10.97
65272;BMP280;51868;48.812;8.198;2022-11-10T05:01:11;101151.38;;;10.94
65272;BMP280;51868;48.812;8.198;2022-11-10T05:03:39;101156.19;;;10.94
65272;BMP280;51868;48.812;8.198;2022-11-10T05:06:07;101162.25;;;10.90
65272;BMP280;51868;48.812;8.198;2022-11-10T05:08:37;101160.69;;;10.87
65272;BMP280;51868;48.812;8.198;2022-11-10T05:11:05;101165.38;;;10.84
65272;BMP280;51868;48.812;8.198;2022-11-10T05:13:33;101167.16;;;10.80
65272;BMP280;51868;48.812;8.198;2022-11-10T05:16:04;101170.53;;;10.78
65272;BMP280;51868;48.812;8.198;2022-11-10T05:18:39;101171.03;;;10.75
65272;BMP280;51868;48.812;8.198;2022-11-10T05:21:07;101176.91;;;10.69
65272;BMP280;51868;48.812;8.198;2022-11-10T05:23:36;101175.34;;;10.66
65272;BMP280;51868;48.812;8.198;2022-11-10T05:26:05;101181.38;;;10.62
65272;BMP280;51868;48.812;8.198;2022-11-10T05:28:33;101170.13;;;10.60
65272;BMP280;51868;48.812;8.198;2022-11-10T05:31:01;101173.50;;;10.59
65272;BMP280;51868;48.812;8.198;2022-11-10T05:33:29;101174.84;;;10.58
65272;BMP280;51868;48.812;8.198;2022-11-10T05:36:05;101160.25;;;10.57
65272;BMP280;51868;48.812;8.198;2022-11-10T05:38:35;101164.47;;;10.58
65272;BMP280;51868;48.812;8.198;2022-11-10T05:41:10;101172.78;;;10.58
65272;BMP280;51868;48.812;8.198;2022-11-10T05:43:38;101171.50;;;10.59
65272;BMP280;51868;48.812;8.198;2022-11-10T05:46:06;101175.69;;;10.60
65272;BMP280;51868;48.812;8.198;2022-11-10T05:48:34;101190.91;;;10.59
65272;BMP280;51868;48.812;8.198;2022-11-10T05:51:01;101194.88;;;10.56
65272;BMP280;51868;48.812;8.198;2022-11-10T05:53:29;101197.38;;;10.52
65272;BMP280;51868;48.812;8.198;2022-11-10T05:55:58;101204.84;;;10.50
65272;BMP280;51868;48.812;8.198;2022-11-10T05:58:27;101200.50;;;10.47
65272;BMP280;51868;48.812;8.198;2022-11-10T06:00:55;101202.41;;;10.44
65272;BMP280;51868;48.812;8.198;2022-11-10T06:03:23;101209.91;;;10.42
65272;BMP280;51868;48.812;8.198;2022-11-10T06:05:52;101225.97;;;10.43
65272;BMP280;51868;48.812;8.198;2022-11-10T06:08:19;101219.66;;;10.43
65272;BMP280;51868;48.812;8.198;2022-11-10T06:10:47;101229.34;;;10.42
65272;BMP280;51868;48.812;8.198;2022-11-10T06:13:15;101232.81;;;10.42
65272;BMP280;51868;48.812;8.198;2022-11-10T06:15:44;101245.97;;;10.42
65272;BMP280;51868;48.812;8.198;2022-11-10T06:18:16;101245.13;;;10.39
65272;BMP280;51868;48.812;8.198;2022-11-10T06:20:45;101257.38;;;10.36
65272;BMP280;51868;48.812;8.198;2022-11-10T06:23:13;101261.50;;;10.35
65272;BMP280;51868;48.812;8.198;2022-11-10T06:28:08;101269.69;;;10.33
65272;BMP280;51868;48.812;8.198;2022-11-10T06:30:37;101278.59;;;10.31
65272;BMP280;51868;48.812;8.198;2022-11-10T06:33:07;101286.19;;;10.31
65272;BMP280;51868;48.812;8.198;2022-11-10T06:35:35;101294.53;;;10.31
65272;BMP280;51868;48.812;8.198;2022-11-10T06:38:04;101296.72;;;10.32
65272;BMP280;51868;48.812;8.198;2022-11-10T06:40:33;101308.69;;;10.35
65272;BMP280;51868;48.812;8.198;2022-11-10T06:43:00;101307.31;;;10.36
65272;BMP280;51868;48.812;8.198;2022-11-10T06:45:28;101306.91;;;10.39
65272;BMP280;51868;48.812;8.198;2022-11-10T06:48:00;101309.94;;;10.44
65272;BMP280;51868;48.812;8.198;2022-11-10T06:50:29;101310.22;;;10.48
65272;BMP280;51868;48.812;8.198;2022-11-10T06:52:58;101318.06;;;10.51
65272;BMP280;51868;48.812;8.198;2022-11-10T06:55:26;101316.84;;;10.54
65272;BMP280;51868;48.812;8.198;2022-11-10T06:57:54;101317.13;;;10.58
65272;BMP280;51868;48.812;8.198;2022-11-10T07:00:23;101327.03;;;10.61
65272;BMP280;51868;48.812;8.198;2022-11-10T07:02:58;101325.00;;;10.62
65272;BMP280;51868;48.812;8.198;2022-11-10T07:05:25;101333.22;;;10.60
65272;BMP280;51868;48.812;8.198;2022-11-10T07:07:54;101346.38;;;10.59
65272;BMP280;51868;48.812;8.198;2022-11-10T07:10:22;101353.22;;;10.58
65272;BMP280;51868;48.812;8.198;2022-11-10T07:12:55;101346.38;;;10.59
65272;BMP280;51868;48.812;8.198;2022-11-10T07:15:22;101356.13;;;10.60
65272;BMP280;51868;48.812;8.198;2022-11-10T07:17:50;101359.63;;;10.61
65272;BMP280;51868;48.812;8.198;2022-11-10T07:20:18;101358.91;;;10.60
65272;BMP280;51868;48.812;8.198;2022-11-10T07:22:46;101368.09;;;10.63
65272;BMP280;51868;48.812;8.198;2022-11-10T07:25:15;101369.56;;;10.64
65272;BMP280;51868;48.812;8.198;2022-11-10T07:27:43;101386.34;;;10.66
65272;BMP280;51868;48.812;8.198;2022-11-10T07:30:11;101394.34;;;10.72
65272;BMP280;51868;48.812;8.198;2022-11-10T07:32:39;101401.50;;;10.75
65272;BMP280;51868;48.812;8.198;2022-11-10T07:35:07;101404.41;;;10.77
65272;BMP280;51868;48.812;8.198;2022-11-10T07:37:38;101409.50;;;10.80
65272;BMP280;51868;48.812;8.198;2022-11-10T07:40:12;101406.38;;;10.86
65272;BMP280;51868;48.812;8.198;2022-11-10T07:42:42;101414.50;;;10.94
65272;BMP280;51868;48.812;8.198;2022-11-10T07:45:09;101407.16;;;10.98
65272;BMP280;51868;48.812;8.198;2022-11-10T07:47:37;101411.94;;;11.07
65272;BMP280;51868;48.812;8.198;2022-11-10T07:50:06;101404.56;;;11.12
65272;BMP280;51868;48.812;8.198;2022-11-10T07:52:34;101412.47;;;11.16
65272;BMP280;51868;48.812;8.198;2022-11-10T07:55:02;101414.88;;;11.21
65272;BMP280;51868;48.812;8.198;2022-11-10T07:57:32;101413.06;;;11.26
65272;BMP280;51868;48.812;8.198;2022-11-10T08:00:02;101425.19;;;11.30
65272;BMP280;51868;48.812;8.198;2022-11-10T08:02:30;101424.84;;;11.36
65272;BMP280;51868;48.812;8.198;2022-11-10T08:04:58;101421.59;;;11.40
65272;BMP280;51868;48.812;8.198;2022-11-10T08:07:25;101430.19;;;11.44
65272;BMP280;51868;48.812;8.198;2022-11-10T08:09:53;101428.38;;;11.48
65272;BMP280;51868;48.812;8.198;2022-11-10T08:12:21;101435.56;;;11.51
65272;BMP280;51868;48.812;8.198;2022-11-10T08:14:48;101437.16;;;11.54
65272;BMP280;51868;48.812;8.198;2022-11-10T08:17:17;101435.81;;;11.55
65272;BMP280;51868;48.812;8.198;2022-11-10T08:19:45;101434.72;;;11.61
65272;BMP280;51868;48.812;8.198;2022-11-10T08:22:13;101448.28;;;11.66
65272;BMP280;51868;48.812;8.198;2022-11-10T08:24:40;101450.47;;;11.68
65272;BMP280;51868;48.812;8.198;2022-11-10T08:27:08;101449.97;;;11.71
65272;BMP280;51868;48.812;8.198;2022-11-10T08:29:36;101450.38;;;11.77
65272;BMP280;51868;48.812;8.198;2022-11-10T08:32:04;101457.88;;;11.87
65272;BMP280;51868;48.812;8.198;2022-11-10T08:34:33;101459.22;;;11.97
65272;BMP280;51868;48.812;8.198;2022-11-10T08:37:02;101459.72;;;12.17
65272;BMP280;51868;48.812;8.198;2022-11-10T08:39:29;101466.28;;;12.45
65272;BMP280;51868;48.812;8.198;2022-11-10T08:42:04;101454.72;;;12.86
65272;BMP280;51868;48.812;8.198;2022-11-10T08:44:32;101469.22;;;13.34
65272;BMP280;51868;48.812;8.198;2022-11-10T08:47:00;101462.66;;;13.80
65272;BMP280;51868;48.812;8.198;2022-11-10T08:49:28;101466.34;;;14.24
65272;BMP280;51868;48.812;8.198;2022-11-10T08:51:57;101473.66;;;14.59
65272;BMP280;51868;48.812;8.198;2022-11-10T08:54:25;101479.31;;;14.88
65272;BMP280;51868;48.812;8.198;2022-11-10T08:56:53;101482.06;;;15.16
65272;BMP280;51868;48.812;8.198;2022-11-10T08:59:20;101488.88;;;15.42
65272;BMP280;51868;48.812;8.198;2022-11-10T09:01:48;101490.91;;;15.72
65272;BMP280;51868;48.812;8.198;2022-11-10T09:04:16;101482.34;;;15.99
65272;BMP280;51868;48.812;8.198;2022-11-10T09:06:44;101487.66;;;16.09
65272;BMP280;51868;48.812;8.198;2022-11-10T09:09:13;101502.44;;;16.27
65272;BMP280;51868;48.812;8.198;2022-11-10T09:11:40;101491.38;;;16.47
65272;BMP280;51868;48.812;8.198;2022-11-10T09:14:08;101499.88;;;16.67
65272;BMP280;51868;48.812;8.198;2022-11-10T09:16:36;101506.25;;;16.85
65272;BMP280;51868;48.812;8.198;2022-11-10T09:19:04;101504.00;;;17.17
65272;BMP280;51868;48.812;8.198;2022-11-10T09:21:33;101508.19;;;17.34
65272;BMP280;51868;48.812;8.198;2022-11-10T09:24:01;101506.25;;;17.39
65272;BMP280;51868;48.812;8.198;2022-11-10T09:26:31;101508.56;;;17.45
65272;BMP280;51868;48.812;8.198;2022-11-10T09:28:59;101515.34;;;17.57
65272;BMP280;51868;48.812;8.198;2022-11-10T09:31:27;101509.31;;;17.65
65272;BMP280;51868;48.812;8.198;2022-11-10T09:33:54;101517.31;;;17.73
65272;BMP280;51868;48.812;8.198;2022-11-10T09:36:27;101521.56;;;17.74
65272;BMP280;51868;48.812;8.198;2022-11-10T09:38:55;101520.00;;;17.69
65272;BMP280;51868;48.812;8.198;2022-11-10T09:41:22;101524.94;;;17.70
65272;BMP280;51868;48.812;8.198;2022-11-10T09:43:58;101538.78;;;17.64
65272;BMP280;51868;48.812;8.198;2022-11-10T09:46:31;101527.91;;;17.74
65272;BMP280;51868;48.812;8.198;2022-11-10T09:49:05;101523.88;;;17.79
65272;BMP280;51868;48.812;8.198;2022-11-10T09:51:38;101541.03;;;17.87
65272;BMP280;51868;48.812;8.198;2022-11-10T09:54:24;101545.03;;;17.82
65272;BMP280;51868;48.812;8.198;2022-11-10T09:56:57;101544.66;;;17.90
65272;BMP280;51868;48.812;8.198;2022-11-10T09:59:30;101558.47;;;18.04
65272;BMP280;51868;48.812;8.198;2022-11-10T10:02:02;101559.97;;;18.07
65272;BMP280;51868;48.812;8.198;2022-11-10T10:04:46;101563.03;;;18.13
65272;BMP280;51868;48.812;8.198;2022-11-10T10:07:21;101567.06;;;18.08
65272;BMP280;51868;48.812;8.198;2022-11-10T10:09:56;101569.28;;;18.11
65272;BMP280;51868;48.812;8.198;2022-11-10T10:12:43;101569.22;;;18.29
65272;BMP280;51868;48.812;8.198;2022-11-10T10:15:22;101570.50;;;18.26
65272;BMP280;51868;48.812;8.198;2022-11-10T10:18:01;101574.75;;;18.27
65272;BMP280;51868;48.812;8.198;2022-11-10T10:20:35;101566.66;;;18.37
65272;BMP280;51868;48.812;8.198;2022-11-10T10:23:18;101561.66;;;18.54
65272;BMP280;51868;48.812;8.198;2022-11-10T10:26:10;101561.91;;;18.62
65272;BMP280;51868;48.812;8.198;2022-11-10T10:28:44;101562.03;;;18.66
65272;BMP280;51868;48.812;8.198;2022-11-10T10:31:14;101569.22;;;18.71
65272;BMP280;51868;48.812;8.198;2022-11-10T10:33:44;101559.84;;;18.64
65272;BMP280;51868;48.812;8.198;2022-11-10T10:36:16;101552.50;;;18.75
65272;BMP280;51868;48.812;8.198;2022-11-10T10:38:44;101555.38;;;18.99
65272;BMP280;51868;48.812;8.198;2022-11-10T10:41:19;101560.78;;;19.15
65272;BMP280;51868;48.812;8.198;2022-11-10T10:43:51;101556.72;;;19.20
65272;BMP280;51868;48.812;8.198;2022-11-10T10:46:22;101554.88;;;19.29
65272;BMP280;51868;48.812;8.198;2022-11-10T10:49:09;101554.34;;;19.34
65272;BMP280;51868;48.812;8.198;2022-11-10T10:52:04;101554.06;;;19.48
65272;BMP280;51868;48.812;8.198;2022-11-10T10:54:33;101551.53;;;19.58
65272;BMP280;51868;48.812;8.198;2022-11-10T10:57:03;101561.38;;;19.57
65272;BMP280;51868;48.812;8.198;2022-11-10T10:59:32;101558.13;;;19.67
65272;BMP280;51868;48.812;8.198;2022-11-10T11:02:02;101558.47;;;19.79
65272;BMP280;51868;48.812;8.198;2022-11-10T11:04:32;101558.66;;;19.85
65272;BMP280;51868;48.812;8.198;2022-11-10T11:07:02;101558.06;;;19.91
65272;BMP280;51868;48.812;8.198;2022-11-10T11:09:38;101567.41;;;19.72
65272;BMP280;51868;48.812;8.198;2022-11-10T11:12:10;101559.81;;;19.76
65272;BMP280;51868;48.812;8.198;2022-11-10T11:14:38;101564.75;;;19.78
65272;BMP280;51868;48.812;8.198;2022-11-10T11:17:17;101566.84;;;19.77
65272;BMP280;51868;48.812;8.198;2022-11-10T11:19:47;101561.22;;;19.77
65272;BMP280;51868;48.812;8.198;2022-11-10T11:22:43;101555.72;;;19.81
65272;BMP280;51868;48.812;8.198;2022-11-10T11:25:19;101545.44;;;19.92
65272;BMP280;51868;48.812;8.198;2022-11-10T11:27:55;101550.53;;;19.98
65272;BMP280;51868;48.812;8.198;2022-11-10T11:30:30;101550.56;;;20.00
65272;BMP280;51868;48.812;8.198;2022-11-10T11:33:31;101554.22;;;20.04
65272;BMP280;51868;48.812;8.198;2022-11-10T11:36:02;101559.63;;;20.22
65272;BMP280;51868;48.812;8.198;2022-11-10T11:38:40;101550.16;;;20.37
65272;BMP280;51868;48.812;8.198;2022-11-10T11:41:19;101546.72;;;20.41
65272;BMP280;51868;48.812;8.198;2022-11-10T11:43:59;101554.59;;;20.46
65272;BMP280;51868;48.812;8.198;2022-11-10T11:46:37;101552.56;;;20.49
65272;BMP280;51868;48.812;8.198;2022-11-10T11:49:34;101561.97;;;20.60
65272;BMP280;51868;48.812;8.198;2022-11-10T11:52:09;101553.72;;;20.68
65272;BMP280;51868;48.812;8.198;2022-11-10T11:54:52;101552.50;;;20.75
65272;BMP280;51868;48.812;8.198;2022-11-10T11:57:31;101549.78;;;20.81
65272;BMP280;51868;48.812;8.198;2022-11-10T12:00:08;101551.44;;;20.90
65272;BMP280;51868;48.812;8.198;2022-11-10T12:02:59;101546.59;;;20.93
65272;BMP280;51868;48.812;8.198;2022-11-10T12:05:39;101551.78;;;21.05
65272;BMP280;51868;48.812;8.198;2022-11-10T12:08:19;101552.78;;;21.19
65272;BMP280;51868;48.812;8.198;2022-11-10T12:10:56;101542.41;;;21.28
65272;BMP280;51868;48.812;8.198;2022-11-10T12:13:36;101548.47;;;21.48
65272;BMP280;51868;48.812;8.198;2022-11-10T12:16:13;101551.50;;;21.59
65272;BMP280;51868;48.812;8.198;2022-11-10T12:18:45;101540.31;;;21.65
65272;BMP280;51868;48.812;8.198;2022-11-10T12:21:23;101539.94;;;21.81
65272;BMP280;51868;48.812;8.198;2022-11-10T12:24:00;101541.22;;;22.14
65272;BMP280;51868;48.812;8.198;2022-11-10T12:26:42;101525.09;;;22.65
65272;BMP280;51868;48.812;8.198;2022-11-10T12:29:21;101528.47;;;23.66
65272;BMP280;51868;48.812;8.198;2022-11-10T12:31:52;101533.63;;;24.79
65272;BMP280;51868;48.812;8.198;2022-11-10T12:34:29;101538.94;;;26.05
65272;BMP280;51868;48.812;8.198;2022-11-10T12:37:08;101537.03;;;27.44
65272;BMP280;51868;48.812;8.198;2022-11-10T12:39:47;101537.31;;;28.70
65272;BMP280;51868;48.812;8.198;2022-11-10T12:42:20;101544.50;;;29.65
65272;BMP280;51868;48.812;8.198;2022-11-10T12:44:59;101547.56;;;30.68
65272;BMP280;51868;48.812;8.198;2022-11-10T12:47:32;101547.66;;;31.28
65272;BMP280;51868;48.812;8.198;2022-11-10T12:50:12;101541.53;;;31.99
65272;BMP280;51868;48.812;8.198;2022-11-10T12:52:51;101537.03;;;32.81
65272;BMP280;51868;48.812;8.198;2022-11-10T12:55:26;101534.72;;;33.50
65272;BMP280;51868;48.812;8.198;2022-11-10T12:57:59;101536.88;;;33.91
65272;BMP280;51868;48.812;8.198;2022-11-10T13:00:31;101543.94;;;34.15
65272;BMP280;51868;48.812;8.198;2022-11-10T13:03:03;101536.22;;;34.47
65272;BMP280;51868;48.812;8.198;2022-11-10T13:05:34;101535.66;;;34.80
65272;BMP280;51868;48.812;8.198;2022-11-10T13:08:35;101538.97;;;34.86
65272;BMP280;51868;48.812;8.198;2022-11-10T13:11:22;101544.19;;;35.34
65272;BMP280;51868;48.812;8.198;2022-11-10T13:13:56;101548.47;;;35.52
65272;BMP280;51868;48.812;8.198;2022-11-10T13:16:45;101553.28;;;35.58
65272;BMP280;51868;48.812;8.198;2022-11-10T13:19:48;101562.97;;;35.67
65272;BMP280;51868;48.812;8.198;2022-11-10T13:22:32;101558.59;;;35.84
65272;BMP280;51868;48.812;8.198;2022-11-10T13:28:10;101576.78;;;35.98
65272;BMP280;51868;48.812;8.198;2022-11-10T13:30:40;101575.19;;;35.69
65272;BMP280;51868;48.812;8.198;2022-11-10T13:33:34;101577.88;;;35.40
65272;BMP280;51868;48.812;8.198;2022-11-10T13:36:03;101570.34;;;35.47
65272;BMP280;51868;48.812;8.198;2022-11-10T13:38:35;101568.44;;;35.58
65272;BMP280;51868;48.812;8.198;2022-11-10T13:41:19;101581.28;;;35.44
65272;BMP280;51868;48.812;8.198;2022-11-10T13:43:49;101581.91;;;35.30
65272;BMP280;51868;48.812;8.198;2022-11-10T13:46:19;101582.44;;;35.35
65272;BMP280;51868;48.812;8.198;2022-11-10T13:49:15;101592.59;;;35.34
65272;BMP280;51868;48.812;8.198;2022-11-10T13:51:55;101592.66;;;35.32
65272;BMP280;51868;48.812;8.198;2022-11-10T13:54:54;101589.53;;;35.02
65272;BMP280;51868;48.812;8.198;2022-11-10T13:57:28;101596.94;;;34.61
65272;BMP280;51868;48.812;8.198;2022-11-10T14:00:00;101600.66;;;33.79
65272;BMP280;51868;48.812;8.198;2022-11-10T14:02:51;101612.47;;;32.56
65272;BMP280;51868;48.812;8.198;2022-11-10T14:08:41;101607.38;;;31.51
65272;BMP280;51868;48.812;8.198;2022-11-10T14:11:18;101612.63;;;30.37
65272;BMP280;51868;48.812;8.198;2022-11-10T14:13:51;101625.97;;;28.55
65272;BMP280;51868;48.812;8.198;2022-11-10T14:16:24;101637.78;;;26.86
65272;BMP280;51868;48.812;8.198;2022-11-10T14:19:04;101635.59;;;25.70
65272;BMP280;51868;48.812;8.198;2022-11-10T14:21:46;101644.28;;;24.67
65272;BMP280;51868;48.812;8.198;2022-11-10T14:24:23;101638.47;;;23.78
65272;BMP280;51868;48.812;8.198;2022-11-10T14:26:55;101652.59;;;22.75
65272;BMP280;51868;48.812;8.198;2022-11-10T14:29:34;101658.13;;;21.90
65272;BMP280;51868;48.812;8.198;2022-11-10T14:32:13;101662.88;;;21.17